createdAt,value
2019-06-26T00:00:52.149Z,10.20
2019-06-26T00:03:20.596Z,10.53
2019-06-26T00:05:48.510Z,9.87
2019-06-26T00:08:18.970Z,9.60
2019-06-26T00:10:48.132Z,10.73
2019-06-26T00:13:25.827Z,10.27
2019-06-26T00:15:45.626Z,10.40
2019-06-26T00:18:13.454Z,11.40
2019-06-26T00:20:41.764Z,9.87
2019-06-26T00:23:11.357Z,9.43
2019-06-26T00:25:39.237Z,10.03
2019-06-26T00:28:07.146Z,11.30
2019-06-26T00:30:35.011Z,10.63
2019-06-26T00:33:02.937Z,11.63
2019-06-26T00:35:30.850Z,10.30
2019-06-26T00:38:00.223Z,11.23
2019-06-26T00:40:28.145Z,10.37
2019-06-26T00:42:56.054Z,10.60
2019-06-26T00:45:44.239Z,10.40
2019-06-26T00:48:12.139Z,11.00
2019-06-26T00:50:40.023Z,11.70
2019-06-26T00:53:09.396Z,11.50
2019-06-26T00:55:37.278Z,12.30
2019-06-26T00:58:06.231Z,10.87
2019-06-26T01:00:38.662Z,10.90
2019-06-26T01:03:06.507Z,11.10
2019-06-26T01:05:34.457Z,10.80
2019-06-26T01:08:02.342Z,10.43
2019-06-26T01:10:30.241Z,11.80
2019-06-26T01:12:58.140Z,11.87
2019-06-26T01:15:27.514Z,11.67
2019-06-26T01:17:55.445Z,11.40
2019-06-26T01:20:40.469Z,12.37
2019-06-26T01:23:08.338Z,12.03
2019-06-26T01:25:36.220Z,12.07
2019-06-26T01:28:04.035Z,11.97
2019-06-26T01:30:33.975Z,13.43
2019-06-26T01:33:01.879Z,12.63
2019-06-26T01:35:29.889Z,12.33
2019-06-26T01:37:57.798Z,13.83
2019-06-26T01:40:25.703Z,12.43
2019-06-26T01:42:53.616Z,12.30
2019-06-26T01:45:55.719Z,12.20
2019-06-26T01:48:27.667Z,13.17
2019-06-26T01:50:55.611Z,13.83
2019-06-26T01:53:24.518Z,15.00
2019-06-26T01:55:52.414Z,14.57
2019-06-26T01:58:20.287Z,13.60
2019-06-26T02:00:48.108Z,15.07
2019-06-26T02:03:16.073Z,14.83
2019-06-26T02:05:43.920Z,14.87
2019-06-26T02:08:13.246Z,14.50
2019-06-26T02:10:42.942Z,16.10
2019-06-26T02:13:12.709Z,15.27
2019-06-26T02:15:40.524Z,16.40
2019-06-26T02:18:28.337Z,15.60
2019-06-26T02:20:56.221Z,15.30
2019-06-26T02:23:27.072Z,14.03
2019-06-26T02:25:54.968Z,14.83
2019-06-26T02:28:24.060Z,15.63
2019-06-26T02:30:52.002Z,15.20
2019-06-26T02:33:19.930Z,15.17
2019-06-26T02:35:49.274Z,16.17
2019-06-26T02:38:17.198Z,16.80
2019-06-26T02:40:45.147Z,16.30
2019-06-26T02:43:13.030Z,16.53
2019-06-26T02:45:41.001Z,17.37
2019-06-26T02:48:08.971Z,14.70
2019-06-26T02:50:39.333Z,17.40
2019-06-26T02:53:07.203Z,18.73
2019-06-26T02:55:36.564Z,16.90
2019-06-26T02:58:04.407Z,17.07
2019-06-26T03:00:32.335Z,17.13
2019-06-26T03:03:00.231Z,18.20
2019-06-26T03:05:28.689Z,17.57
2019-06-26T03:07:57.193Z,17.20
2019-06-26T03:10:25.058Z,18.30
2019-06-26T03:12:53.545Z,18.23
2019-06-26T03:15:22.525Z,16.70
2019-06-26T03:17:55.513Z,19.73
2019-06-26T03:20:24.226Z,17.20
2019-06-26T03:22:52.054Z,17.77
2019-06-26T03:25:20.890Z,19.70
2019-06-26T03:27:48.803Z,18.10
2019-06-26T03:30:18.996Z,19.80
2019-06-26T03:32:46.899Z,18.93
2019-06-26T03:35:14.849Z,19.43
2019-06-26T03:37:42.730Z,18.20
2019-06-26T03:40:10.839Z,21.37
2019-06-26T03:42:39.089Z,18.93
2019-06-26T03:45:24.126Z,20.63
2019-06-26T03:47:39.619Z,21.30
2019-06-26T03:50:07.498Z,20.30
2019-06-26T03:52:35.333Z,19.70
2019-06-26T03:55:03.443Z,20.20
2019-06-26T03:57:31.382Z,20.50
2019-06-26T04:00:02.006Z,21.43
2019-06-26T04:02:30.068Z,20.20
2019-06-26T04:04:58.033Z,20.30
2019-06-26T04:07:25.963Z,21.07
2019-06-26T04:09:53.906Z,21.90
2019-06-26T04:12:21.795Z,19.30
2019-06-26T04:14:49.709Z,20.63
2019-06-26T04:17:17.611Z,20.30
2019-06-26T04:19:48.909Z,20.57
2019-06-26T04:22:16.792Z,19.10
2019-06-26T04:24:44.652Z,19.87
2019-06-26T04:27:12.631Z,22.23
2019-06-26T04:29:40.749Z,22.63
2019-06-26T04:32:10.114Z,22.40
2019-06-26T04:34:38.005Z,23.30
2019-06-26T04:37:05.893Z,22.80
2019-06-26T04:39:33.728Z,23.97
2019-06-26T04:42:01.634Z,22.00
2019-06-26T04:44:29.510Z,24.40
2019-06-26T04:47:03.646Z,26.77
2019-06-26T04:49:33.575Z,27.03
2019-06-26T04:52:01.476Z,28.33
2019-06-26T04:54:29.409Z,28.87
2019-06-26T04:56:57.294Z,27.13
2019-06-26T04:59:25.222Z,27.10
2019-06-26T05:01:53.122Z,27.00
2019-06-26T05:04:21.045Z,29.37
2019-06-26T05:06:49.426Z,27.60
2019-06-26T05:09:17.743Z,28.50
2019-06-26T05:11:45.697Z,28.20
2019-06-26T05:14:13.581Z,27.30
2019-06-26T05:16:41.502Z,29.03
2019-06-26T05:19:09.354Z,28.43
2019-06-26T05:21:37.227Z,29.40
2019-06-26T05:24:05.062Z,29.63
2019-06-26T05:26:32.858Z,29.30
2019-06-26T05:29:00.727Z,26.70
2019-06-26T05:31:28.534Z,28.63
2019-06-26T05:33:56.381Z,30.30
2019-06-26T05:36:24.210Z,28.73
2019-06-26T05:38:52.027Z,29.60
2019-06-26T05:41:19.986Z,27.57
2019-06-26T05:43:47.881Z,29.60
2019-06-26T05:46:30.043Z,32.60
2019-06-26T05:48:45.278Z,33.40
2019-06-26T05:51:13.081Z,31.97
2019-06-26T05:53:40.953Z,31.30
2019-06-26T05:56:08.781Z,34.00
2019-06-26T05:58:36.617Z,32.67
2019-06-26T06:01:04.422Z,33.00
2019-06-26T06:03:32.254Z,33.20
2019-06-26T06:06:00.058Z,33.40
2019-06-26T06:08:27.898Z,30.03
2019-06-26T06:10:58.168Z,31.87
2019-06-26T06:13:25.278Z,28.50
2019-06-26T06:15:53.144Z,27.97
2019-06-26T06:18:21.061Z,28.50
2019-06-26T06:20:49.242Z,29.80
2019-06-26T06:23:17.061Z,30.33
2019-06-26T06:25:44.934Z,30.20
2019-06-26T06:28:12.804Z,28.37
2019-06-26T06:30:40.760Z,28.33
2019-06-26T06:33:08.619Z,28.40
2019-06-26T06:35:36.508Z,28.13
2019-06-26T06:38:04.373Z,27.10
2019-06-26T06:40:32.199Z,27.07
2019-06-26T06:43:00.198Z,27.90
2019-06-26T06:45:28.569Z,28.83
2019-06-26T06:47:56.447Z,27.90
2019-06-26T06:50:24.449Z,25.90
2019-06-26T06:52:52.769Z,27.90
2019-06-26T06:55:20.660Z,27.80
2019-06-26T06:57:48.522Z,25.73
2019-06-26T07:00:16.873Z,26.90
2019-06-26T07:02:44.729Z,25.90
2019-06-26T07:05:12.698Z,24.17
2019-06-26T07:07:40.528Z,23.60
2019-06-26T07:10:08.463Z,24.30
2019-06-26T07:12:36.424Z,23.90
2019-06-26T07:15:05.186Z,27.67
2019-06-26T07:17:33.028Z,24.30
2019-06-26T07:20:00.887Z,25.27
2019-06-26T07:22:28.781Z,23.30
2019-06-26T07:24:56.674Z,24.23
2019-06-26T07:27:24.550Z,23.10
2019-06-26T07:29:52.431Z,23.17
2019-06-26T07:32:20.270Z,24.53
2019-06-26T07:34:48.139Z,24.93
2019-06-26T07:37:16.010Z,26.30
2019-06-26T07:39:43.854Z,25.80
2019-06-26T07:42:11.768Z,25.60
2019-06-26T07:44:39.615Z,25.77
2019-06-26T07:47:21.733Z,25.83
2019-06-26T07:49:37.115Z,23.00
2019-06-26T07:52:05.025Z,26.20
2019-06-26T07:54:32.850Z,24.40
2019-06-26T07:57:00.762Z,26.33
2019-06-26T07:59:28.582Z,25.40
2019-06-26T08:01:56.445Z,23.43
2019-06-26T08:04:24.289Z,22.03
2019-06-26T08:06:52.154Z,21.60
2019-06-26T08:09:20.038Z,23.10
2019-06-26T08:11:47.950Z,22.40
2019-06-26T08:14:15.785Z,22.53
2019-06-26T08:16:43.651Z,21.30
2019-06-26T08:19:11.470Z,21.87
2019-06-26T08:21:39.338Z,22.40
2019-06-26T08:24:07.242Z,20.70
2019-06-26T08:26:35.148Z,19.00
2019-06-26T08:29:03.034Z,18.80
2019-06-26T08:31:30.857Z,19.43
2019-06-26T08:33:58.690Z,15.33
2019-06-26T08:36:26.572Z,14.93
2019-06-26T08:38:54.427Z,16.77
2019-06-26T08:41:22.249Z,19.60
2019-06-26T08:43:50.208Z,18.80
2019-06-26T08:46:18.027Z,14.80
2019-06-26T08:48:45.899Z,17.07
2019-06-26T08:51:13.710Z,15.17
2019-06-26T08:53:41.561Z,14.60
2019-06-26T08:56:09.511Z,14.97
2019-06-26T08:58:37.325Z,17.17
2019-06-26T09:01:05.173Z,18.07
2019-06-26T09:03:33.012Z,14.50
2019-06-26T09:06:00.831Z,15.20
2019-06-26T09:08:28.791Z,15.80
2019-06-26T09:10:56.763Z,15.30
2019-06-26T09:13:24.689Z,15.83
2019-06-26T09:15:52.520Z,14.53
2019-06-26T09:18:34.314Z,14.07
2019-06-26T09:20:49.901Z,13.17
2019-06-26T09:23:18.834Z,12.00
2019-06-26T09:25:46.659Z,10.03
2019-06-26T09:28:14.524Z,10.50
2019-06-26T09:30:42.459Z,11.13
2019-06-26T09:33:10.302Z,10.50
2019-06-26T09:35:38.328Z,11.60
2019-06-26T09:38:06.286Z,11.20
2019-06-26T09:40:34.167Z,10.93
2019-06-26T09:43:01.999Z,9.87
2019-06-26T09:45:29.850Z,10.27
2019-06-26T09:47:57.708Z,9.60
2019-06-26T09:50:25.569Z,9.37
2019-06-26T09:52:53.389Z,10.40
2019-06-26T09:55:21.314Z,9.87
2019-06-26T09:57:49.210Z,9.63
2019-06-26T10:00:17.167Z,10.50
2019-06-26T10:02:44.965Z,10.00
2019-06-26T10:05:12.797Z,9.80
2019-06-26T10:07:40.630Z,10.23
2019-06-26T10:10:08.982Z,9.53
2019-06-26T10:12:36.794Z,10.47
2019-06-26T10:15:05.234Z,9.30
2019-06-26T10:17:33.106Z,8.83
2019-06-26T10:20:00.940Z,10.30
2019-06-26T10:22:28.808Z,9.57
2019-06-26T10:24:56.694Z,8.07
2019-06-26T10:27:24.614Z,7.30
2019-06-26T10:29:52.458Z,7.67
2019-06-26T10:32:20.358Z,8.23
2019-06-26T10:34:48.218Z,8.53
2019-06-26T10:37:16.092Z,8.87
2019-06-26T10:39:43.946Z,9.03
2019-06-26T10:42:11.831Z,8.00
2019-06-26T10:44:39.666Z,8.40
2019-06-26T10:47:07.534Z,8.53
2019-06-26T10:49:35.377Z,7.87
2019-06-26T10:52:03.245Z,8.00
2019-06-26T10:54:31.255Z,8.77
2019-06-26T10:56:59.654Z,8.20
2019-06-26T10:59:27.582Z,7.70
2019-06-26T11:01:55.430Z,8.83
2019-06-26T11:04:23.435Z,8.73
2019-06-26T11:06:51.302Z,7.50
2019-06-26T11:09:19.153Z,8.00
2019-06-26T11:11:47.045Z,9.80
2019-06-26T11:14:14.877Z,11.13
2019-06-26T11:16:42.821Z,8.87
2019-06-26T11:19:10.741Z,11.33
2019-06-26T11:21:38.546Z,9.80
2019-06-26T11:24:06.461Z,10.83
2019-06-26T11:26:34.357Z,10.27
2019-06-26T11:29:02.365Z,9.73
2019-06-26T11:31:30.221Z,12.60
2019-06-26T11:33:58.119Z,11.67
2019-06-26T11:36:25.957Z,14.70
2019-06-26T11:38:53.796Z,16.80
2019-06-26T11:41:21.642Z,16.97
2019-06-26T11:43:49.554Z,15.70
2019-06-26T11:46:17.373Z,17.30
2019-06-26T11:48:45.227Z,16.13
2019-06-26T11:51:13.048Z,15.27
2019-06-26T11:53:40.928Z,13.13
2019-06-26T11:56:08.970Z,14.10
2019-06-26T11:58:36.872Z,15.03
2019-06-26T12:01:04.710Z,17.57
2019-06-26T12:03:32.584Z,16.90
2019-06-26T12:06:12.259Z,17.70
2019-06-26T12:08:30.034Z,17.43
2019-06-26T12:10:57.876Z,21.57
2019-06-26T12:13:25.711Z,19.77
2019-06-26T12:15:53.646Z,19.57
2019-06-26T12:18:21.446Z,18.73
2019-06-26T12:20:49.302Z,22.43
2019-06-26T12:23:17.253Z,21.57
2019-06-26T12:25:45.157Z,23.90
2019-06-26T12:28:12.986Z,22.37
2019-06-26T12:30:40.908Z,21.20
2019-06-26T12:33:08.807Z,22.90
2019-06-26T12:35:36.821Z,23.53
2019-06-26T12:38:04.648Z,20.37
2019-06-26T12:40:32.506Z,19.37
2019-06-26T12:43:00.351Z,18.40
2019-06-26T12:45:28.215Z,18.30
2019-06-26T12:47:56.050Z,18.80
2019-06-26T12:50:34.837Z,17.00
2019-06-26T12:52:53.765Z,16.60
2019-06-26T12:55:21.945Z,15.33
2019-06-26T12:57:49.754Z,14.80
2019-06-26T13:00:17.700Z,14.50
2019-06-26T13:02:45.519Z,15.17
2019-06-26T13:05:13.499Z,14.80
2019-06-26T13:07:41.346Z,14.40
2019-06-26T13:10:10.809Z,15.67
2019-06-26T13:12:38.599Z,14.80
2019-06-26T13:15:06.859Z,14.27
2019-06-26T13:17:34.837Z,14.73
2019-06-26T13:20:02.693Z,14.83
2019-06-26T13:22:30.532Z,15.83
2019-06-26T13:24:58.350Z,15.03
2019-06-26T13:27:26.203Z,16.50
2019-06-26T13:29:54.233Z,16.07
2019-06-26T13:32:22.434Z,15.37
2019-06-26T13:34:50.468Z,15.40
2019-06-26T13:37:18.485Z,15.20
2019-06-26T13:39:46.305Z,15.37
2019-06-26T13:42:14.189Z,14.63
2019-06-26T13:44:42.080Z,13.73
2019-06-26T13:47:09.946Z,13.13
2019-06-26T13:49:37.778Z,14.33
2019-06-26T13:52:05.642Z,14.63
2019-06-26T13:54:33.498Z,14.67
2019-06-26T13:57:01.533Z,14.83
2019-06-26T13:59:29.398Z,16.07
2019-06-26T14:01:57.255Z,15.93
2019-06-26T14:04:25.258Z,15.20
2019-06-26T14:06:53.143Z,13.23
2019-06-26T14:09:20.955Z,13.70
2019-06-26T14:11:48.853Z,15.30
2019-06-26T14:14:16.669Z,16.87
2019-06-26T14:16:45.099Z,15.50
2019-06-26T14:19:12.929Z,13.83
2019-06-26T14:21:40.796Z,16.90
2019-06-26T14:24:08.641Z,14.83
2019-06-26T14:26:36.497Z,14.70
2019-06-26T14:29:17.009Z,14.30
2019-06-26T14:31:33.926Z,13.37
2019-06-26T14:34:01.772Z,12.80
2019-06-26T14:36:29.621Z,14.37
2019-06-26T14:38:57.476Z,12.90
2019-06-26T14:41:25.290Z,13.00
2019-06-26T14:43:53.163Z,13.17
2019-06-26T14:46:20.995Z,13.50
2019-06-26T14:48:48.862Z,13.10
2019-06-26T14:51:16.744Z,11.20
2019-06-26T14:53:44.711Z,12.60
2019-06-26T14:56:12.614Z,13.07
2019-06-26T14:58:40.479Z,11.63
2019-06-26T15:01:08.355Z,11.73
2019-06-26T15:03:36.194Z,10.97
2019-06-26T15:06:15.978Z,10.70
2019-06-26T15:08:33.634Z,10.83
2019-06-26T15:11:01.446Z,9.63
2019-06-26T15:13:29.492Z,9.67
2019-06-26T15:15:57.306Z,8.97
2019-06-26T15:18:25.146Z,9.87
2019-06-26T15:20:52.989Z,8.70
2019-06-26T15:23:20.825Z,8.87
2019-06-26T15:25:48.667Z,9.20
2019-06-26T15:28:16.540Z,9.40
2019-06-26T15:30:44.430Z,9.07
2019-06-26T15:33:12.286Z,8.70
2019-06-26T15:35:40.107Z,8.30
2019-06-26T15:38:07.979Z,7.90
2019-06-26T15:40:35.832Z,9.03
2019-06-26T15:43:03.682Z,8.43
2019-06-26T15:45:31.646Z,9.20
2019-06-26T15:47:59.490Z,8.57
2019-06-26T15:50:27.321Z,9.37
2019-06-26T15:52:55.130Z,8.73
2019-06-26T15:55:22.991Z,8.80
2019-06-26T15:57:50.842Z,9.00
2019-06-26T16:00:18.743Z,8.93
2019-06-26T16:02:46.568Z,9.80
2019-06-26T16:05:14.717Z,9.27
2019-06-26T16:07:42.558Z,8.97
2019-06-26T16:10:10.407Z,9.57
2019-06-26T16:12:38.221Z,9.97
2019-06-26T16:15:06.511Z,10.60
2019-06-26T16:17:56.200Z,9.83
2019-06-26T16:20:24.086Z,9.60
2019-06-26T16:22:51.957Z,10.20
2019-06-26T16:25:23.534Z,10.97
2019-06-26T16:28:04.716Z,10.23
2019-06-26T16:30:24.171Z,10.20
2019-06-26T16:32:56.873Z,9.97
2019-06-26T16:35:25.744Z,11.10
2019-06-26T16:37:55.432Z,9.30
2019-06-26T16:40:25.168Z,10.30
2019-06-26T16:42:53.084Z,10.10
2019-06-26T16:45:21.010Z,9.80
2019-06-26T16:47:48.873Z,10.00
2019-06-26T16:50:21.790Z,9.70
2019-06-26T16:52:51.059Z,9.43
2019-06-26T16:55:19.259Z,9.83
2019-06-26T16:57:47.151Z,9.63
2019-06-26T17:00:21.959Z,8.90
2019-06-26T17:02:51.434Z,8.53
2019-06-26T17:05:19.406Z,8.10
2019-06-26T17:07:47.298Z,8.60
2019-06-26T17:10:15.209Z,8.80
2019-06-26T17:12:43.398Z,8.50
2019-06-26T17:15:13.450Z,8.50
2019-06-26T17:17:42.900Z,8.20
2019-06-26T17:20:11.082Z,8.13
2019-06-26T17:22:40.354Z,8.30
2019-06-26T17:25:08.251Z,8.30
2019-06-26T17:27:36.221Z,9.10
2019-06-26T17:30:05.085Z,9.60
2019-06-26T17:32:35.108Z,10.30
2019-06-26T17:35:05.192Z,10.87
2019-06-26T17:37:33.100Z,10.73
2019-06-26T17:40:05.909Z,11.07
2019-06-26T17:42:34.031Z,11.30
2019-06-26T17:45:01.894Z,10.00
2019-06-26T17:47:29.796Z,9.97
2019-06-26T17:49:58.739Z,10.10
2019-06-26T17:52:28.481Z,10.43
2019-06-26T17:54:56.365Z,9.80
2019-06-26T17:57:24.286Z,9.60
2019-06-26T17:59:52.249Z,8.90
2019-06-26T18:02:20.184Z,9.73
2019-06-26T18:04:50.549Z,8.90
2019-06-26T18:07:18.428Z,9.07
2019-06-26T18:09:46.303Z,8.90
2019-06-26T18:12:14.246Z,8.60
2019-06-26T18:14:43.282Z,7.40
2019-06-26T18:17:21.484Z,7.30
2019-06-26T18:19:42.357Z,7.13
2019-06-26T18:22:10.221Z,7.43
2019-06-26T18:24:38.099Z,7.10
2019-06-26T18:27:08.259Z,6.80
2019-06-26T18:29:36.846Z,6.83
2019-06-26T18:32:04.750Z,6.10
2019-06-26T18:34:32.626Z,6.47
2019-06-26T18:37:03.944Z,5.20
2019-06-26T18:39:31.852Z,4.87
2019-06-26T18:42:01.986Z,5.40
2019-06-26T18:44:30.264Z,5.30
2019-06-26T18:46:58.143Z,6.20
2019-06-26T18:49:26.052Z,5.67
2019-06-26T18:51:53.920Z,4.87
2019-06-26T18:54:21.786Z,5.27
2019-06-26T18:56:49.726Z,4.53
2019-06-26T18:59:17.664Z,4.07
2019-06-26T19:01:45.521Z,3.80
2019-06-26T19:04:13.406Z,3.80
2019-06-26T19:06:41.241Z,4.23
2019-06-26T19:09:09.138Z,3.40
2019-06-26T19:11:37.002Z,3.27
2019-06-26T19:14:06.021Z,3.30
2019-06-26T19:16:36.291Z,3.27
2019-06-26T19:19:04.539Z,3.30
2019-06-26T19:21:32.401Z,3.50
2019-06-26T19:24:09.700Z,3.40
2019-06-26T19:26:29.854Z,3.40
2019-06-26T19:28:57.929Z,3.33
2019-06-26T19:31:25.849Z,3.10
2019-06-26T19:33:53.783Z,3.70
2019-06-26T19:36:24.176Z,3.77
2019-06-26T19:38:51.336Z,3.10
2019-06-26T19:41:19.195Z,3.50
2019-06-26T19:43:47.053Z,3.70
2019-06-26T19:46:14.934Z,2.93
2019-06-26T19:48:42.772Z,3.20
2019-06-26T19:51:10.698Z,3.67
2019-06-26T19:53:38.555Z,3.80
2019-06-26T19:56:06.493Z,3.10
2019-06-26T19:58:34.782Z,3.63
2019-06-26T20:01:02.705Z,4.30
2019-06-26T20:03:30.586Z,3.20
2019-06-26T20:05:58.503Z,3.27
2019-06-26T20:08:27.476Z,3.67
2019-06-26T20:10:55.400Z,3.60
2019-06-26T20:13:23.347Z,3.13
2019-06-26T20:15:52.309Z,3.37
2019-06-26T20:18:20.435Z,3.60
2019-06-26T20:20:48.349Z,3.47
2019-06-26T20:23:16.222Z,4.20
2019-06-26T20:25:44.118Z,3.40
2019-06-26T20:28:12.011Z,3.80
2019-06-26T20:30:39.927Z,3.43
2019-06-26T20:33:07.864Z,3.80
2019-06-26T20:35:38.717Z,3.90
2019-06-26T20:38:05.418Z,3.80
2019-06-26T20:40:33.398Z,3.70
2019-06-26T20:43:01.270Z,3.77
2019-06-26T20:45:29.170Z,4.40
2019-06-26T20:47:57.483Z,3.30
2019-06-26T20:50:25.307Z,3.30
2019-06-26T20:52:55.857Z,3.17
2019-06-26T20:55:23.779Z,3.10
2019-06-26T20:57:52.523Z,3.27
2019-06-26T21:00:22.789Z,3.20
2019-06-26T21:02:53.995Z,3.37
2019-06-26T21:05:20.543Z,3.23
2019-06-26T21:07:48.412Z,3.03
2019-06-26T21:10:16.385Z,2.83
2019-06-26T21:12:46.648Z,3.73
2019-06-26T21:15:15.796Z,3.67
2019-06-26T21:17:43.669Z,3.70
2019-06-26T21:20:13.653Z,3.00
2019-06-26T21:22:43.389Z,3.37
2019-06-26T21:25:18.941Z,4.30
2019-06-26T21:27:40.946Z,3.63
2019-06-26T21:30:09.310Z,2.97
2019-06-26T21:32:37.329Z,3.40
2019-06-26T21:35:05.459Z,2.90
2019-06-26T21:37:33.330Z,3.20
2019-06-26T21:40:01.423Z,3.57
2019-06-26T21:42:29.319Z,3.30
2019-06-26T21:44:57.177Z,3.27
2019-06-26T21:47:25.047Z,3.13
2019-06-26T21:49:52.884Z,3.20
2019-06-26T21:52:20.749Z,3.57
2019-06-26T21:54:48.679Z,3.40
2019-06-26T21:57:16.566Z,3.27
2019-06-26T21:59:44.451Z,3.17
2019-06-26T22:02:12.399Z,3.30
2019-06-26T22:04:40.308Z,3.50
2019-06-26T22:07:08.186Z,3.60
2019-06-26T22:09:36.049Z,3.20
2019-06-26T22:12:04.107Z,3.00
2019-06-26T22:14:31.945Z,2.77
2019-06-26T22:16:59.805Z,3.17
2019-06-26T22:19:27.658Z,3.57
2019-06-26T22:21:55.504Z,3.07
2019-06-26T22:24:23.373Z,2.80
2019-06-26T22:26:52.313Z,3.37
2019-06-26T22:29:21.667Z,3.30
2019-06-26T22:31:49.482Z,3.33
2019-06-26T22:34:17.338Z,2.97
2019-06-26T22:36:51.805Z,3.30
2019-06-26T22:39:14.746Z,3.43
2019-06-26T22:41:42.597Z,3.63
2019-06-26T22:44:10.466Z,3.83
2019-06-26T22:46:38.297Z,3.70
2019-06-26T22:49:06.192Z,3.70
2019-06-26T22:51:34.016Z,3.45
2019-06-26T22:54:01.888Z,3.55
2019-06-26T22:56:29.758Z,4.30
2019-06-26T22:58:57.635Z,3.40
2019-06-26T23:01:25.509Z,4.40
2019-06-26T23:03:53.487Z,4.05
2019-06-26T23:06:21.340Z,4.23
2019-06-26T23:08:51.523Z,3.40
2019-06-26T23:11:19.356Z,3.67
2019-06-26T23:13:47.223Z,3.90
2019-06-26T23:16:15.081Z,3.93
2019-06-26T23:18:42.950Z,3.87
2019-06-26T23:21:10.795Z,3.15
2019-06-26T23:23:38.690Z,4.40
2019-06-26T23:26:23.057Z,3.70
2019-06-26T23:28:37.946Z,3.40
2019-06-26T23:31:05.902Z,4.00
2019-06-26T23:33:33.747Z,3.42
2019-06-26T23:36:01.699Z,4.10
2019-06-26T23:38:29.544Z,3.98
2019-06-26T23:40:57.439Z,4.80
2019-06-26T23:43:25.291Z,3.55
2019-06-26T23:45:53.260Z,3.35
2019-06-26T23:48:21.109Z,3.45
2019-06-26T23:50:48.975Z,4.53
2019-06-26T23:53:16.851Z,3.70
2019-06-26T23:55:44.735Z,4.08
2019-06-26T23:58:12.624Z,3.72
